• Join FlightAware (Why Join?)
  • Login
  • US Flag 
07:22PM EDT


 

Airport Tracker/Info


-or-


 

Live Flight TrackerFlight Track Log ✈ CTL13 ✈ 06-May-2013 ✈ KEYE - KMDW

Flight Track Log - Related Links

Times and Time Zones

All times are in EDT time to prevent confusion due to time zone crossing. See the CTL13 flight status page for this flight to view local times or setup timezone preferences in your user account.

Time Position Orientation Groundspeed Altitude Reporting Facility
EDT Latitude Longitude Course Direction KTS MPH feet Rate Location/Type
08:21PM 39.9000 -86.3167 17° North 156 180 2,900  Level Indianapolis TRACON
08:22PM 39.9208 -86.3458 313° West 155 178 3,200 540 Climbing Chicago Center
08:23PM 39.9508 -86.3842 316° Northwest 154 177 3,800 540 Climbing Indianapolis Center
08:24PM 39.9828 -86.4233 317° Northwest 156 180 4,400 540 Climbing Indianapolis Center
08:26PM 39.8486 -86.2873 17° North  Level FlightAware Approximate
08:26PM 40.0508 -86.4981 320° Northwest 159 183 5,600  Level Indianapolis Center
08:27PM 40.0919 -86.5464 318° Northwest 162 186 6,000 120 Climbing Indianapolis Center
08:28PM 40.1300 -86.5878 320° Northwest 170 196 5,900  Descending Indianapolis Center
08:29PM 40.1681 -86.6331 318° Northwest 178 205 6,000  Climbing Indianapolis Center
08:30PM 40.2058 -86.6764 319° Northwest 181 208 6,000 -60 Level Indianapolis Center
08:31PM 40.2442 -86.7178 321° Northwest 180 207 5,900 -60 Descending Indianapolis Center
08:32PM 40.2825 -86.7600 320° Northwest 180 207 5,900  Level Indianapolis Center
08:33PM 40.3197 -86.8072 316° Northwest 177 204 5,900  Level Chicago Center
08:34PM 40.3600 -86.8481 322° Northwest 175 201 5,900  Level Chicago Center
08:35PM 40.3939 -86.8886 318° Northwest 174 200 5,900  Level Chicago Center
08:35PM 40.4008 -86.8911 345° North 174 200 5,900  Level Chicago Center
08:37PM 40.4753 -86.9747 320° Northwest 177 204 5,900  Level Indianapolis Center
08:38PM 40.5108 -87.0175 318° Northwest 176 203 6,000  Climbing Indianapolis Center
08:39PM 40.5475 -87.0586 320° Northwest 175 201 6,000 -60 Level Indianapolis Center
08:40PM 40.5844 -87.0928 325° Northwest 170 196 5,900 -60 Descending Indianapolis Center
08:41PM 40.6369 -87.1164 341° North 164 189 5,900  Level Indianapolis Center
08:42PM 40.6850 -87.1381 341° North 165 190 5,900  Level Chicago Center
08:43PM 40.7261 -87.1592 339° North 161 185 5,900  Level Chicago Center
08:44PM 40.7750 -87.1856 338° Northwest 160 184 6,000  Climbing Chicago Center
08:45PM 40.8164 -87.2086 337° Northwest 163 188 6,000  Level Chicago Center
08:47PM 40.8986 -87.2544 337° Northwest 161 185 6,000 -60 Level Chicago Center
08:49PM 40.9428 -87.2767 339° North 166 191 5,900  Descending Chicago Center
08:50PM 40.9846 -87.2977 339° North  Level FlightAware Approximate
08:51PM 41.0367 -87.3256 339° North 166 191 6,000  Level Chicago Center
08:52PM 41.0789 -87.3494 337° Northwest 165 190 6,000 -300 Level Chicago Center
08:53PM 41.1233 -87.3722 339° North 171 197 5,400 -660 Descending Chicago Center
08:55PM 41.2283 -87.4297 338° Northwest 184 212 4,100 -480 Descending Chicago Center
08:56PM 41.2747 -87.4561 337° Northwest 184 212 4,000 -60 Descending Chicago Center
08:57PM 41.3189 -87.4786 339° North 179 206 4,000  Level Chicago Center
08:58PM 41.3639 -87.5008 340° North 175 201 4,000  Level Chicago Center
08:59PM 41.4183 -87.5303 338° Northwest 176 203 4,000  Level Chicago Center
09:01PM 41.5094 -87.5592 347° North 171 197 4,000  Level Chicago Center
09:03PM 41.6167 -87.5667 357° North 175 201 4,100  Climbing Chicago TRACON
09:04PM 41.6167 -87.6333 270° West 181 208 4,000 -60 Descending Chicago TRACON
09:05PM 41.6097 -87.6922 261° West 181 208 4,000  Level Chicago Center
09:06PM 41.6075 -87.7581 267° West 179 206 4,000  Level Chicago Center
09:07PM 41.6042 -87.8253 266° West 181 208 4,100  Climbing Chicago Center
09:08PM 41.5742 -87.8719 229° Southwest 178 205 4,100 -300 Level Chicago Center
09:09PM 41.5333 -87.9111 216° Southwest 179 206 3,500 -540 Descending Chicago Center
09:10PM 41.5397 -87.9800 277° West 191 220 3,100 -240 Descending Chicago Center
09:11PM 41.5803 -87.9947 345° North 182 209 3,100 -60 Level Chicago Center
09:12PM 41.6183 -87.9608 34° Northeast 172 198 3,000 -300 Descending Chicago Center
09:13PM 41.6525 -87.9161 44° Northeast 171 197 2,600 -300 Descending Chicago Center
09:14PM 41.6883 -87.8733 42° Northeast 172 198 2,500  Descending Chicago Center
09:15PM 41.7292 -87.8247 42° Northeast 169 194 2,600 -540 Climbing Chicago Center
09:16PM 41.7567 -87.7889 44° Northeast 154 177 1,500 -780 Descending Chicago Center
09:17PM 41.7797 -87.7589 44° Northeast 147 169 1,100 -420 Descending Chicago Center
09:19PM 41.7833 -87.7500 22° Northeast  Level FlightAware Approximate